createdAt,value
2022-10-22T00:01:49.757Z,15.07
2022-10-22T00:07:01.917Z,15.08
2022-10-22T00:12:14.608Z,15.1
2022-10-22T00:17:26.788Z,15.12
2022-10-22T00:22:39.314Z,15.14
2022-10-22T00:27:51.763Z,15.15
2022-10-22T00:33:04.071Z,15.15
2022-10-22T00:38:16.544Z,15.14
2022-10-22T00:43:29.075Z,15.14
2022-10-22T00:48:41.285Z,15.15
2022-10-22T00:53:53.689Z,15.13
2022-10-22T00:59:06.098Z,15.12
2022-10-22T01:04:18.434Z,15.13
2022-10-22T01:09:30.766Z,15.13
2022-10-22T01:14:43.230Z,15.12
2022-10-22T01:19:55.271Z,15.11
2022-10-22T01:25:07.852Z,15.08
2022-10-22T01:30:20.291Z,15.09
2022-10-22T01:40:45.215Z,15.03
2022-10-22T01:45:57.687Z,14.98
2022-10-22T01:51:09.962Z,14.93
2022-10-22T01:56:22.289Z,14.92
2022-10-22T02:01:34.635Z,14.92
2022-10-22T02:06:47.032Z,14.9
2022-10-22T02:11:59.956Z,14.87
2022-10-22T02:17:12.286Z,14.8
2022-10-22T02:22:24.625Z,14.73
2022-10-22T02:27:36.831Z,14.66
2022-10-22T02:32:49.337Z,14.66
2022-10-22T02:38:01.566Z,14.6
2022-10-22T02:43:13.916Z,14.56
2022-10-22T02:48:26.229Z,14.55
2022-10-22T02:53:38.517Z,14.49
2022-10-22T02:58:50.994Z,14.45
2022-10-22T03:04:03.361Z,14.4
2022-10-22T03:09:15.708Z,14.37
2022-10-22T03:14:28.054Z,14.38
2022-10-22T03:19:40.499Z,14.42
2022-10-22T03:24:52.791Z,14.46
2022-10-22T03:30:04.988Z,14.49
2022-10-22T03:35:17.488Z,14.53
2022-10-22T03:40:29.868Z,14.56
2022-10-22T03:45:42.306Z,14.6
2022-10-22T03:50:54.639Z,14.61
2022-10-22T03:56:07.026Z,14.63
2022-10-22T04:01:19.523Z,14.65
2022-10-22T04:06:32.056Z,14.66
2022-10-22T04:11:44.449Z,14.62
2022-10-22T04:16:57.072Z,14.53
2022-10-22T04:22:09.332Z,14.46
2022-10-22T04:27:21.620Z,14.39
2022-10-22T04:32:33.950Z,14.34
2022-10-22T04:37:46.304Z,14.32
2022-10-22T04:42:58.774Z,14.28
2022-10-22T04:48:11.071Z,14.27
2022-10-22T04:53:23.379Z,14.28
2022-10-22T04:58:35.642Z,14.32
2022-10-22T05:03:47.968Z,14.36
2022-10-22T05:09:00.455Z,14.41
2022-10-22T05:14:12.718Z,14.43
2022-10-22T05:19:24.997Z,14.43
2022-10-22T05:24:37.420Z,14.33
2022-10-22T05:29:49.589Z,14.28
2022-10-22T05:35:01.839Z,14.28
2022-10-22T05:40:19.675Z,14.23
2022-10-22T05:45:26.533Z,14.17
2022-10-22T05:50:39.151Z,14.19
2022-10-22T05:55:51.440Z,14.16
2022-10-22T06:01:03.818Z,14.18
2022-10-22T06:06:16.159Z,14.22
2022-10-22T06:11:29.887Z,14.26
2022-10-22T06:16:40.706Z,14.28
2022-10-22T06:21:52.921Z,14.22
2022-10-22T06:27:05.365Z,14.21
2022-10-22T06:32:17.586Z,14.17
2022-10-22T06:37:29.881Z,14.11
2022-10-22T06:42:42.573Z,14.08
2022-10-22T06:47:54.406Z,14.1
2022-10-22T06:53:06.805Z,14.17
2022-10-22T06:58:19.131Z,14.25
2022-10-22T07:03:31.541Z,14.32
2022-10-22T07:08:44.093Z,14.4
2022-10-22T07:13:56.307Z,14.47
2022-10-22T07:19:08.596Z,14.54
2022-10-22T07:24:20.904Z,14.61
2022-10-22T07:29:33.460Z,14.68
2022-10-22T07:34:45.865Z,14.71
2022-10-22T07:40:01.353Z,14.63
2022-10-22T07:45:10.269Z,14.57
2022-10-22T07:50:22.592Z,14.5
2022-10-22T07:55:34.892Z,14.57
2022-10-22T08:00:47.284Z,14.68
2022-10-22T08:05:59.677Z,14.79
2022-10-22T08:11:12.000Z,14.82
2022-10-22T08:16:24.383Z,14.85
2022-10-22T08:21:37.081Z,14.9
2022-10-22T08:26:49.288Z,14.88
2022-10-22T08:32:01.558Z,14.88
2022-10-22T08:37:13.930Z,14.83
2022-10-22T08:42:26.420Z,14.91
2022-10-22T08:47:38.765Z,15.01
2022-10-22T08:52:51.044Z,15.06
2022-10-22T08:58:03.341Z,15.08
2022-10-22T09:03:15.602Z,15.1
2022-10-22T09:08:28.005Z,15.17
2022-10-22T09:13:40.261Z,15.21
2022-10-22T09:18:52.774Z,15.27
2022-10-22T09:24:05.250Z,15.34
2022-10-22T09:29:17.588Z,15.39
2022-10-22T09:34:36.664Z,15.51
2022-10-22T09:39:49.005Z,15.62
2022-10-22T09:45:01.421Z,15.7
2022-10-22T09:50:13.867Z,15.81
2022-10-22T09:55:25.954Z,15.89
2022-10-22T10:00:38.289Z,15.91
2022-10-22T10:05:50.654Z,15.87
2022-10-22T10:11:03.049Z,15.89
2022-10-22T10:16:15.448Z,15.95
2022-10-22T10:21:27.829Z,15.99
2022-10-22T10:26:40.207Z,16.04
2022-10-22T10:31:52.949Z,16.12
2022-10-22T10:37:05.253Z,16.1
2022-10-22T10:42:17.790Z,16.14
2022-10-22T10:47:30.017Z,16.16
2022-10-22T10:52:42.301Z,16.21
2022-10-22T10:57:54.786Z,16.47
2022-10-22T11:03:07.182Z,16.67
2022-10-22T11:08:19.448Z,16.8
2022-10-22T11:13:31.851Z,16.94
2022-10-22T11:18:44.124Z,17.15
2022-10-22T11:23:56.600Z,17.39
2022-10-22T11:29:09.143Z,17.82
2022-10-22T11:34:33.010Z,18.37
2022-10-22T11:39:34.086Z,18.82
2022-10-22T11:44:47.128Z,19.22
2022-10-22T11:49:59.522Z,19.62
2022-10-22T11:55:11.746Z,20.02
2022-10-22T12:00:24.267Z,20.32
2022-10-22T12:05:36.618Z,20.66
2022-10-22T12:10:48.937Z,20.84
2022-10-22T12:16:01.147Z,20.78
2022-10-22T12:21:13.382Z,20.49
2022-10-22T12:26:25.790Z,20.63
2022-10-22T12:31:38.361Z,20.94
2022-10-22T12:36:50.959Z,21.22
2022-10-22T12:42:03.460Z,21.7
2022-10-22T12:47:16.009Z,22.23
2022-10-22T12:52:28.330Z,22.38
2022-10-22T12:57:40.689Z,22.58
2022-10-22T13:02:53.192Z,22.78
2022-10-22T13:08:05.232Z,22.78
2022-10-22T13:13:17.644Z,22.78
2022-10-22T13:18:30.149Z,22.95
2022-10-22T13:23:42.789Z,23.25
2022-10-22T13:28:55.205Z,23.43
2022-10-22T13:34:09.696Z,23.82
2022-10-22T13:39:20.062Z,24.12
2022-10-22T13:44:32.665Z,24.2
2022-10-22T13:49:45.058Z,24.08
2022-10-22T13:54:57.250Z,24.12
2022-10-22T14:00:09.797Z,24.17
2022-10-22T14:05:22.072Z,24.12
2022-10-22T14:10:34.247Z,24.06
2022-10-22T14:15:46.648Z,24.34
2022-10-22T14:20:58.896Z,24.29
2022-10-22T14:26:11.147Z,23.97
2022-10-22T14:31:23.634Z,23.98
2022-10-22T14:36:35.823Z,23.77
2022-10-22T14:41:48.033Z,23.5
2022-10-22T14:47:00.423Z,23.77
2022-10-22T14:52:14.256Z,24.01
2022-10-22T14:57:25.313Z,23.98
2022-10-22T15:02:37.582Z,24.09
2022-10-22T15:07:49.745Z,24.15
2022-10-22T15:13:02.052Z,24.1
2022-10-22T15:18:14.530Z,24.08
2022-10-22T15:23:26.804Z,23.64
2022-10-22T15:28:39.129Z,23.31
2022-10-22T15:33:51.313Z,22.76
2022-10-22T15:39:03.475Z,22.31
2022-10-22T15:44:15.840Z,21.87
2022-10-22T15:49:28.064Z,21.53
2022-10-22T15:54:40.262Z,21.27
2022-10-22T15:59:52.498Z,21.03
2022-10-22T16:05:04.694Z,20.66
2022-10-22T16:10:16.829Z,20.4
2022-10-22T16:15:29.173Z,20.14
2022-10-22T16:20:41.302Z,19.93
2022-10-22T16:25:53.587Z,19.71
2022-10-22T16:31:06.036Z,19.57
2022-10-22T16:36:18.156Z,19.51
2022-10-22T16:41:30.417Z,19.35
2022-10-22T16:46:42.766Z,19.09
2022-10-22T16:51:54.761Z,18.81
2022-10-22T16:57:07.060Z,18.68
2022-10-22T17:02:19.391Z,18.6
2022-10-22T17:07:31.643Z,18.49
2022-10-22T17:12:44.120Z,18.33
2022-10-22T17:17:56.183Z,18.24
2022-10-22T17:23:08.610Z,18.19
2022-10-22T17:28:20.845Z,18.12
2022-10-22T17:33:33.578Z,18.09
2022-10-22T17:38:45.743Z,18
2022-10-22T17:43:58.030Z,17.8
2022-10-22T17:49:10.232Z,17.68
2022-10-22T17:54:22.573Z,17.6
2022-10-22T17:59:34.884Z,17.59
2022-10-22T18:04:47.310Z,17.49
2022-10-22T18:09:59.529Z,17.33
2022-10-22T18:15:11.809Z,17.24
2022-10-22T18:20:24.073Z,17.1
2022-10-22T18:30:48.714Z,17.07
2022-10-22T18:36:01.383Z,17.06
2022-10-22T18:41:13.649Z,17.04
2022-10-22T18:46:25.953Z,16.98
2022-10-22T18:51:38.207Z,16.92
2022-10-22T18:56:50.479Z,16.92
2022-10-22T19:02:02.783Z,16.9
2022-10-22T19:07:15.129Z,16.85
2022-10-22T19:12:27.647Z,16.74
2022-10-22T19:17:40.120Z,16.72
2022-10-22T19:22:52.397Z,16.72
2022-10-22T19:28:04.786Z,16.59
2022-10-22T19:33:17.001Z,16.56
2022-10-22T19:38:29.438Z,16.58
2022-10-22T19:43:41.698Z,16.5
2022-10-22T19:48:53.946Z,16.28
2022-10-22T19:54:06.326Z,16.18
2022-10-22T19:59:18.747Z,16.15
2022-10-22T20:04:32.579Z,16.17
2022-10-22T20:09:45.155Z,16.19
2022-10-22T20:14:57.470Z,16.17
2022-10-22T20:20:09.758Z,16.16
2022-10-22T20:25:21.989Z,16.18
2022-10-22T20:30:34.223Z,16.18
2022-10-22T20:35:46.516Z,16.21
2022-10-22T20:40:58.739Z,16.21
2022-10-22T20:46:11.301Z,16.23
2022-10-22T20:51:23.596Z,16.2
2022-10-22T20:56:35.908Z,16.18
2022-10-22T21:01:48.068Z,16.13
2022-10-22T21:07:00.112Z,16.07
2022-10-22T21:12:12.471Z,16.03
2022-10-22T21:17:24.722Z,15.98
2022-10-22T21:22:37.128Z,15.97
2022-10-22T21:27:49.341Z,15.98
2022-10-22T21:33:01.680Z,16.02
2022-10-22T21:38:13.991Z,16.02
2022-10-22T21:43:26.400Z,16
2022-10-22T21:48:38.652Z,15.99
2022-10-22T21:59:03.424Z,15.99
2022-10-22T22:04:15.837Z,16
2022-10-22T22:09:28.159Z,15.96
2022-10-22T22:14:40.358Z,15.92
2022-10-22T22:19:53.424Z,15.86
2022-10-22T22:25:05.588Z,15.78
2022-10-22T22:30:17.954Z,15.73
2022-10-22T22:35:30.452Z,15.65
2022-10-22T22:40:42.828Z,15.6
2022-10-22T22:45:54.999Z,15.55
2022-10-22T22:51:07.349Z,15.46
2022-10-22T22:56:19.679Z,15.35
2022-10-22T23:01:32.106Z,15.3
2022-10-22T23:06:44.435Z,15.27
2022-10-22T23:11:56.697Z,15.26
2022-10-22T23:17:09.004Z,15.19
2022-10-22T23:22:21.448Z,15.11
2022-10-22T23:27:33.793Z,15.08
2022-10-22T23:32:46.344Z,15.07
2022-10-22T23:37:58.668Z,15.02
2022-10-22T23:43:10.745Z,14.83
2022-10-22T23:48:23.200Z,14.64
2022-10-22T23:53:35.447Z,14.62
2022-10-22T23:58:47.636Z,14.58
